createdAt,value
2019-06-08T00:02:31.738Z,58.37
2019-06-08T00:05:21.355Z,58.80
2019-06-08T00:08:10.269Z,58.89
2019-06-08T00:10:59.629Z,58.54
2019-06-08T00:13:48.436Z,58.56
2019-06-08T00:16:38.505Z,58.54
2019-06-08T00:19:28.240Z,58.44
2019-06-08T00:22:17.697Z,58.26
2019-06-08T00:25:07.005Z,58.16
2019-06-08T00:27:55.841Z,58.04
2019-06-08T00:30:45.545Z,58.36
2019-06-08T00:33:35.343Z,58.47
2019-06-08T00:36:25.033Z,58.38
2019-06-08T00:39:14.730Z,58.31
2019-06-08T00:42:03.745Z,58.43
2019-06-08T00:44:53.013Z,58.34
2019-06-08T00:47:47.910Z,58.23
2019-06-08T00:50:36.569Z,58.22
2019-06-08T00:53:25.669Z,58.77
2019-06-08T00:56:14.876Z,58.96
2019-06-08T00:59:04.712Z,59.40
2019-06-08T01:01:54.190Z,59.66
2019-06-08T01:04:45.375Z,59.45
2019-06-08T01:07:34.886Z,59.76
2019-06-08T01:10:25.572Z,59.96
2019-06-08T01:13:16.168Z,59.98
2019-06-08T01:16:05.765Z,59.93
2019-06-08T01:18:55.277Z,60.13
2019-06-08T01:21:45.454Z,60.42
2019-06-08T01:24:34.759Z,60.78
2019-06-08T01:27:24.279Z,60.99
2019-06-08T01:30:14.107Z,60.79
2019-06-08T01:33:03.835Z,60.71
2019-06-08T01:35:52.744Z,60.67
2019-06-08T01:38:42.106Z,60.66
2019-06-08T01:41:31.874Z,60.66
2019-06-08T01:44:21.608Z,60.54
2019-06-08T01:47:11.259Z,60.64
2019-06-08T01:50:00.594Z,60.66
2019-06-08T01:52:50.371Z,60.51
2019-06-08T01:55:39.655Z,60.13
2019-06-08T01:58:29.466Z,60.21
2019-06-08T02:01:18.726Z,60.08
2019-06-08T02:04:08.950Z,59.99
2019-06-08T02:06:58.389Z,59.95
2019-06-08T02:09:47.849Z,59.79
2019-06-08T02:12:36.485Z,59.78
2019-06-08T02:15:31.809Z,59.53
2019-06-08T02:18:35.326Z,59.37
2019-06-08T02:21:12.435Z,59.22
2019-06-08T02:24:01.886Z,59.17
2019-06-08T02:26:52.106Z,59.03
2019-06-08T02:29:42.207Z,58.92
2019-06-08T02:32:33.489Z,58.91
2019-06-08T02:35:23.119Z,58.75
2019-06-08T02:38:12.565Z,58.60
2019-06-08T02:41:02.173Z,58.44
2019-06-08T02:43:51.907Z,58.33
2019-06-08T02:46:42.104Z,58.27
2019-06-08T02:49:33.206Z,58.22
2019-06-08T02:52:23.053Z,58.18
2019-06-08T02:55:13.821Z,58.10
2019-06-08T02:58:03.893Z,58.17
2019-06-08T03:00:58.206Z,58.80
2019-06-08T03:03:45.905Z,59.69
2019-06-08T03:06:36.591Z,59.48
2019-06-08T03:09:26.847Z,59.38
2019-06-08T03:12:16.660Z,59.57
2019-06-08T03:15:07.618Z,59.79
2019-06-08T03:17:56.999Z,59.89
2019-06-08T03:20:45.733Z,60.01
2019-06-08T03:23:36.278Z,60.50
2019-06-08T03:26:25.020Z,60.40
2019-06-08T03:29:14.425Z,60.26
2019-06-08T03:32:03.167Z,60.71
2019-06-08T03:34:56.524Z,61.10
2019-06-08T03:37:44.481Z,60.97
2019-06-08T03:40:33.932Z,60.99
2019-06-08T03:43:23.576Z,61.04
2019-06-08T03:46:13.156Z,60.85
2019-06-08T03:49:01.971Z,60.89
2019-06-08T03:51:51.645Z,61.22
2019-06-08T03:54:42.569Z,61.07
2019-06-08T03:57:31.827Z,61.45
2019-06-08T04:00:20.990Z,61.59
2019-06-08T04:03:10.917Z,61.35
2019-06-08T04:06:00.088Z,61.67
2019-06-08T04:08:49.961Z,61.79
2019-06-08T04:11:42.025Z,61.75
2019-06-08T04:14:30.743Z,61.95
2019-06-08T04:17:19.963Z,61.59
2019-06-08T04:20:11.649Z,61.52
2019-06-08T04:22:59.550Z,61.50
2019-06-08T04:25:50.648Z,61.82
2019-06-08T04:28:40.604Z,61.94
2019-06-08T04:31:30.704Z,61.90
2019-06-08T04:34:19.858Z,61.80
2019-06-08T04:37:09.173Z,61.58
2019-06-08T04:39:58.269Z,61.73
2019-06-08T04:42:49.350Z,61.53
2019-06-08T04:45:39.231Z,61.47
2019-06-08T04:48:29.587Z,61.62
2019-06-08T04:51:18.330Z,61.45
2019-06-08T04:54:07.908Z,61.37
2019-06-08T04:56:57.291Z,61.50
2019-06-08T04:59:48.395Z,61.26
2019-06-08T05:02:39.217Z,61.12
2019-06-08T05:05:27.785Z,61.23
2019-06-08T05:08:17.610Z,61.45
2019-06-08T05:11:06.962Z,61.10
2019-06-08T05:13:56.228Z,61.17
2019-06-08T05:16:45.380Z,61.15
2019-06-08T05:19:35.060Z,61.26
2019-06-08T05:22:24.689Z,61.09
2019-06-08T05:25:14.491Z,61.00
2019-06-08T05:28:04.250Z,60.88
2019-06-08T05:30:53.644Z,60.86
2019-06-08T05:33:43.429Z,60.74
2019-06-08T05:36:33.129Z,60.78
2019-06-08T05:39:22.887Z,61.00
2019-06-08T05:42:12.134Z,60.81
2019-06-08T05:45:01.235Z,60.85
2019-06-08T05:47:51.046Z,60.67
2019-06-08T05:50:54.933Z,60.73
2019-06-08T05:53:31.265Z,60.60
2019-06-08T05:56:20.230Z,60.58
2019-06-08T05:59:10.138Z,60.61
2019-06-08T06:01:59.664Z,60.50
2019-06-08T07:02:32.720Z,60.46
2019-06-08T07:05:21.468Z,60.41
2019-06-08T07:08:11.004Z,60.86
2019-06-08T07:11:00.302Z,60.57
2019-06-08T07:13:50.810Z,60.64
2019-06-08T07:16:40.693Z,60.84
2019-06-08T07:19:30.458Z,60.84
2019-06-08T07:22:20.397Z,61.15
2019-06-08T07:25:10.011Z,60.88
2019-06-08T07:27:59.370Z,60.75
2019-06-08T07:30:49.262Z,60.91
2019-06-08T07:33:38.614Z,60.89
2019-06-08T07:36:28.183Z,60.87
2019-06-08T07:39:17.673Z,61.05
2019-06-08T07:42:07.453Z,60.96
2019-06-08T07:44:56.850Z,61.18
2019-06-08T07:47:47.854Z,61.04
2019-06-08T07:50:37.908Z,61.16
2019-06-08T07:53:26.950Z,61.26
2019-06-08T07:56:16.862Z,61.18
2019-06-08T07:59:06.093Z,61.31
2019-06-08T08:01:56.061Z,61.17
2019-06-08T08:04:46.077Z,61.25
2019-06-08T08:07:34.844Z,61.17
2019-06-08T08:10:24.476Z,61.13
2019-06-08T08:13:14.032Z,61.26
2019-06-08T08:16:02.987Z,61.90
2019-06-08T08:18:53.411Z,61.63
2019-06-08T08:21:43.485Z,61.80
2019-06-08T08:24:33.356Z,61.61
2019-06-08T08:27:22.399Z,61.58
2019-06-08T08:30:11.166Z,61.57
2019-06-08T08:33:02.986Z,61.67
2019-06-08T08:35:52.172Z,61.67
2019-06-08T08:38:42.647Z,61.83
2019-06-08T08:41:32.305Z,62.21
2019-06-08T08:44:21.392Z,62.25
2019-06-08T08:47:10.862Z,62.58
2019-06-08T08:50:01.865Z,62.83
2019-06-08T08:52:52.281Z,63.03
2019-06-08T08:55:42.285Z,63.12
2019-06-08T08:58:31.056Z,63.30
2019-06-08T09:01:20.531Z,63.60
2019-06-08T09:04:10.676Z,63.53
2019-06-08T09:07:05.507Z,63.77
2019-06-08T09:09:51.992Z,63.84
2019-06-08T09:12:41.183Z,63.83
2019-06-08T09:15:31.535Z,63.83
2019-06-08T09:18:21.316Z,63.84
2019-06-08T09:21:11.048Z,63.79
2019-06-08T09:24:03.509Z,63.83
2019-06-08T09:26:53.084Z,63.88
2019-06-08T09:29:42.717Z,63.83
2019-06-08T09:32:32.812Z,64.05
2019-06-08T09:35:21.811Z,64.42
2019-06-08T09:38:11.850Z,64.68
2019-06-08T09:41:05.138Z,64.82
2019-06-08T09:43:55.262Z,64.67
2019-06-08T09:46:43.529Z,64.96
2019-06-08T09:49:33.006Z,64.86
2019-06-08T09:52:22.676Z,65.01
2019-06-08T09:55:11.646Z,65.09
2019-06-08T09:58:05.123Z,65.12
2019-06-08T10:00:54.572Z,65.57
2019-06-08T10:03:43.519Z,65.97
2019-06-08T10:06:32.904Z,66.05
2019-06-08T10:09:22.364Z,66.20
2019-06-08T10:12:12.030Z,66.05
2019-06-08T10:15:02.858Z,66.14
2019-06-08T10:17:53.521Z,66.03
2019-06-08T10:20:44.053Z,66.41
2019-06-08T10:23:34.660Z,66.43
2019-06-08T10:26:24.574Z,66.65
2019-06-08T10:29:13.753Z,66.90
2019-06-08T10:32:03.828Z,66.54
2019-06-08T10:34:53.568Z,66.55
2019-06-08T10:37:43.130Z,66.56
2019-06-08T10:40:32.366Z,66.61
2019-06-08T10:43:22.169Z,66.60
2019-06-08T10:46:16.994Z,66.97
2019-06-08T10:49:05.941Z,67.49
2019-06-08T10:51:55.184Z,67.47
2019-06-08T10:54:48.768Z,67.53
2019-06-08T10:57:38.540Z,67.85
2019-06-08T11:00:29.297Z,67.24
2019-06-08T11:03:20.176Z,67.53
2019-06-08T11:06:13.047Z,67.60
2019-06-08T11:09:06.091Z,67.27
2019-06-08T11:11:58.372Z,67.30
2019-06-08T11:14:48.164Z,67.34
2019-06-08T11:17:38.017Z,67.67
2019-06-08T11:20:27.603Z,67.92
2019-06-08T11:23:19.289Z,67.49
2019-06-08T11:26:19.121Z,67.26
2019-06-08T11:29:02.768Z,67.24
2019-06-08T11:31:53.612Z,68.52
2019-06-08T11:34:44.717Z,67.40
2019-06-08T11:37:40.957Z,66.93
2019-06-08T11:40:30.168Z,66.82
2019-06-08T11:43:21.809Z,66.47
2019-06-08T11:46:12.658Z,65.86
2019-06-08T11:49:06.176Z,65.92
2019-06-08T11:51:54.127Z,65.54
2019-06-08T11:54:47.907Z,65.36
2019-06-08T11:57:40.427Z,65.24
2019-06-08T12:01:00.892Z,65.32
2019-06-08T12:03:48.397Z,65.12
2019-06-08T12:06:38.251Z,65.22
2019-06-08T12:09:28.812Z,65.67
2019-06-08T12:12:21.376Z,66.13
2019-06-08T12:15:13.199Z,66.31
2019-06-08T12:18:01.574Z,67.13
2019-06-08T12:20:52.563Z,67.58
2019-06-08T12:23:43.215Z,68.99
2019-06-08T12:26:33.765Z,70.44
2019-06-08T12:29:23.198Z,72.41
2019-06-08T12:32:14.314Z,69.17
2019-06-08T12:35:03.443Z,69.73
2019-06-08T12:37:52.961Z,70.29
2019-06-08T12:40:42.336Z,68.10
2019-06-08T12:43:31.146Z,67.84
2019-06-08T12:46:21.479Z,68.18
2019-06-08T12:49:12.907Z,68.13
2019-06-08T12:52:02.178Z,67.86
2019-06-08T12:55:02.491Z,68.03
2019-06-08T12:57:43.336Z,68.06
2019-06-08T13:00:32.714Z,67.84
2019-06-08T13:03:22.427Z,68.04
2019-06-08T13:06:12.493Z,67.95
2019-06-08T13:09:02.666Z,68.13
2019-06-08T13:11:51.346Z,68.42
2019-06-08T13:14:41.188Z,68.78
2019-06-08T13:17:30.629Z,68.99
2019-06-08T13:20:22.387Z,68.84
2019-06-08T13:23:12.997Z,68.90
2019-06-08T13:26:02.779Z,68.49
2019-06-08T13:28:52.458Z,68.83
2019-06-08T13:31:41.860Z,68.84
2019-06-08T13:34:31.155Z,69.18
2019-06-08T13:37:22.080Z,69.53
2019-06-08T13:40:15.218Z,69.29
2019-06-08T13:43:04.761Z,72.13
2019-06-08T13:45:54.335Z,74.49
2019-06-08T13:48:45.178Z,73.29
2019-06-08T13:51:34.567Z,71.64
2019-06-08T13:54:25.398Z,71.92
2019-06-08T13:57:15.042Z,71.94
2019-06-08T14:00:05.008Z,73.14
2019-06-08T14:02:54.160Z,71.52
2019-06-08T14:05:42.836Z,71.34
2019-06-08T14:08:33.062Z,71.54
2019-06-08T14:11:24.092Z,70.67
2019-06-08T14:14:13.931Z,69.68
2019-06-08T14:17:08.347Z,65.32
2019-06-08T14:19:59.327Z,63.38
2019-06-08T14:22:50.416Z,62.08
2019-06-08T14:25:50.612Z,61.71
2019-06-08T14:28:30.440Z,61.18
2019-06-08T14:31:23.263Z,59.50
2019-06-08T14:34:11.671Z,59.08
2019-06-08T14:37:01.012Z,59.15
2019-06-08T14:39:50.472Z,58.54
2019-06-08T14:42:40.031Z,58.18
2019-06-08T14:45:32.250Z,57.72
2019-06-08T14:48:25.551Z,57.87
2019-06-08T14:51:12.128Z,57.36
2019-06-08T14:54:00.680Z,57.73
2019-06-08T14:56:50.182Z,56.52
2019-06-08T14:59:39.824Z,57.07
2019-06-08T15:02:31.286Z,57.72
2019-06-08T15:05:21.514Z,56.50
2019-06-08T15:08:12.094Z,54.76
2019-06-08T15:11:03.808Z,53.57
2019-06-08T15:13:53.960Z,53.02
2019-06-08T15:16:44.583Z,54.29
2019-06-08T15:19:33.569Z,53.83
2019-06-08T15:22:22.722Z,53.68
2019-06-08T15:25:13.507Z,52.80
2019-06-08T15:28:02.965Z,51.16
2019-06-08T15:30:52.482Z,52.25
2019-06-08T15:33:41.944Z,50.96
2019-06-08T15:36:32.540Z,48.64
2019-06-08T15:39:23.390Z,47.50
2019-06-08T15:42:13.388Z,46.82
2019-06-08T15:45:02.322Z,47.54
2019-06-08T15:47:52.527Z,46.98
2019-06-08T15:50:42.735Z,45.59
2019-06-08T15:53:33.041Z,44.96
2019-06-08T15:56:43.145Z,46.36
2019-06-08T15:59:18.238Z,45.19
2019-06-08T16:02:07.580Z,44.89
2019-06-08T16:04:57.258Z,44.61
2019-06-08T16:07:46.276Z,43.90
2019-06-08T16:10:35.846Z,43.29
2019-06-08T16:13:26.705Z,42.43
2019-06-08T16:16:16.408Z,42.36
2019-06-08T16:19:06.214Z,43.09
2019-06-08T16:21:55.405Z,42.41
2019-06-08T16:24:45.055Z,41.95
2019-06-08T16:27:35.898Z,42.18
2019-06-08T16:30:26.639Z,39.48
2019-06-08T16:33:16.729Z,38.25
2019-06-08T16:36:07.601Z,39.56
2019-06-08T16:38:57.565Z,39.90
2019-06-08T16:41:47.047Z,40.74
2019-06-08T16:44:36.461Z,39.20
2019-06-08T16:47:26.982Z,39.59
2019-06-08T16:50:24.511Z,40.00
2019-06-08T16:53:09.801Z,40.19
2019-06-08T16:55:58.434Z,39.65
2019-06-08T16:58:47.501Z,40.19
2019-06-08T17:01:38.937Z,40.72
2019-06-08T17:04:28.839Z,40.62
2019-06-08T17:07:18.762Z,41.25
2019-06-08T17:10:09.594Z,40.60
2019-06-08T17:12:58.801Z,40.29
2019-06-08T17:15:48.602Z,41.50
2019-06-08T17:18:38.721Z,41.17
2019-06-08T17:21:30.119Z,41.05
2019-06-08T17:24:19.762Z,41.44
2019-06-08T17:27:25.855Z,41.45
2019-06-08T17:30:08.328Z,41.99
2019-06-08T17:32:53.937Z,42.11
2019-06-08T17:35:43.049Z,42.14
2019-06-08T17:38:31.847Z,41.99
2019-06-08T17:41:21.090Z,42.34
2019-06-08T17:44:10.447Z,42.57
2019-06-08T17:46:59.306Z,42.78
2019-06-08T17:49:49.018Z,43.10
2019-06-08T17:52:41.038Z,43.33
2019-06-08T17:55:33.139Z,43.49
2019-06-08T17:58:24.898Z,43.54
2019-06-08T18:01:14.675Z,43.87
2019-06-08T18:04:04.313Z,44.00
2019-06-08T18:06:53.465Z,44.10
2019-06-08T18:09:48.333Z,44.37
2019-06-08T18:12:40.767Z,44.55
2019-06-08T18:15:28.482Z,44.73
2019-06-08T18:18:19.282Z,44.84
2019-06-08T18:21:08.852Z,44.88
2019-06-08T18:23:58.491Z,44.99
2019-06-08T18:26:48.927Z,45.29
2019-06-08T18:29:39.634Z,45.45
2019-06-08T18:32:28.803Z,45.61
2019-06-08T18:35:21.537Z,45.57
2019-06-08T18:38:14.129Z,45.71
2019-06-08T18:41:03.809Z,45.85
2019-06-08T18:43:58.202Z,46.13
2019-06-08T18:46:50.627Z,45.88
2019-06-08T18:49:42.592Z,46.39
2019-06-08T18:52:31.319Z,46.58
2019-06-08T18:55:20.964Z,46.47
2019-06-08T18:58:24.632Z,46.58
2019-06-08T19:01:22.909Z,46.80
2019-06-08T19:04:12.707Z,46.78
2019-06-08T19:07:02.770Z,46.95
2019-06-08T19:09:51.925Z,47.17
2019-06-08T19:12:43.288Z,47.25
2019-06-08T19:15:39.866Z,47.43
2019-06-08T19:18:29.305Z,47.56
2019-06-08T19:21:42.825Z,47.77
2019-06-08T19:24:39.029Z,48.09
2019-06-08T19:27:27.754Z,48.38
2019-06-08T19:30:20.368Z,48.50
2019-06-08T19:33:10.655Z,48.73
2019-06-08T19:35:59.364Z,48.92
2019-06-08T19:38:54.198Z,49.04
2019-06-08T19:41:41.511Z,49.13
2019-06-08T19:44:35.104Z,49.33
2019-06-08T19:47:27.616Z,49.36
2019-06-08T19:50:18.563Z,49.58
2019-06-08T19:53:08.958Z,49.72
2019-06-08T19:55:59.163Z,49.88
2019-06-08T19:59:00.930Z,50.03
2019-06-08T20:01:41.540Z,50.11
2019-06-08T20:04:38.609Z,50.20
2019-06-08T20:07:28.409Z,50.42
2019-06-08T20:10:17.587Z,50.59
2019-06-08T20:13:09.052Z,50.68
2019-06-08T20:16:02.207Z,50.84
2019-06-08T20:18:51.671Z,51.02
2019-06-08T20:21:41.019Z,51.11
2019-06-08T20:24:30.171Z,51.26
2019-06-08T20:27:21.703Z,51.40
2019-06-08T20:30:12.328Z,51.56
2019-06-08T20:33:03.581Z,51.66
2019-06-08T20:35:53.979Z,51.79
2019-06-08T20:38:44.755Z,52.04
2019-06-08T20:41:37.630Z,52.01
2019-06-08T20:44:29.921Z,52.22
2019-06-08T20:47:17.911Z,52.32
2019-06-08T20:50:08.127Z,52.33
2019-06-08T20:52:57.986Z,52.54
2019-06-08T20:55:51.191Z,52.68
2019-06-08T20:58:45.368Z,52.81
2019-06-08T21:01:36.299Z,52.79
2019-06-08T21:04:27.675Z,52.93
2019-06-08T21:07:17.513Z,52.93
2019-06-08T21:10:08.311Z,52.97
2019-06-08T21:12:58.788Z,53.04
2019-06-08T21:15:52.633Z,53.23
2019-06-08T21:18:38.477Z,53.25
2019-06-08T21:21:28.303Z,53.31
2019-06-08T21:24:17.946Z,53.29
2019-06-08T21:27:08.326Z,53.46
2019-06-08T21:30:06.011Z,53.51
2019-06-08T21:32:51.682Z,53.44
2019-06-08T21:35:39.341Z,53.44
2019-06-08T21:38:28.593Z,53.66
2019-06-08T21:41:18.276Z,53.72
2019-06-08T21:44:17.359Z,53.82
2019-06-08T21:47:07.881Z,53.74
2019-06-08T21:50:00.376Z,53.89
2019-06-08T21:52:51.937Z,53.99
2019-06-08T21:55:42.015Z,53.93
2019-06-08T21:58:30.659Z,54.11
2019-06-08T22:01:20.179Z,54.12
2019-06-08T22:04:08.828Z,54.08
2019-06-08T22:06:59.635Z,54.08
2019-06-08T22:09:48.622Z,54.13
2019-06-08T22:12:40.462Z,54.25
2019-06-08T22:15:28.117Z,54.38
2019-06-08T22:18:18.423Z,54.34
2019-06-08T22:21:08.102Z,54.40
2019-06-08T22:23:59.268Z,54.48
2019-06-08T22:26:47.931Z,54.54
2019-06-08T22:29:38.286Z,54.66
2019-06-08T22:32:27.868Z,54.73
2019-06-08T22:35:18.566Z,54.75
2019-06-08T22:38:08.569Z,54.89
2019-06-08T22:41:00.001Z,54.86
2019-06-08T22:43:49.584Z,54.91
2019-06-08T22:46:38.499Z,54.96
2019-06-08T22:49:28.084Z,54.89
2019-06-08T22:52:18.640Z,54.94
2019-06-08T22:55:10.925Z,54.95
2019-06-08T22:58:01.909Z,55.08
2019-06-08T23:00:53.070Z,55.20
2019-06-08T23:03:42.809Z,55.17
2019-06-08T23:06:34.487Z,55.30
2019-06-08T23:09:23.151Z,55.25
2019-06-08T23:12:12.542Z,55.32
2019-06-08T23:15:02.343Z,55.26
2019-06-08T23:17:52.979Z,55.32
2019-06-08T23:20:43.348Z,55.35
2019-06-08T23:23:33.903Z,55.39
2019-06-08T23:26:24.207Z,55.43
2019-06-08T23:29:13.576Z,55.47
2019-06-08T23:32:04.874Z,55.57
2019-06-08T23:34:54.319Z,55.66
2019-06-08T23:37:44.368Z,55.63
2019-06-08T23:40:33.082Z,55.68
2019-06-08T23:43:22.636Z,55.84
2019-06-08T23:46:12.031Z,55.87
2019-06-08T23:49:02.442Z,55.83
2019-06-08T23:51:52.020Z,55.91
2019-06-08T23:54:40.667Z,55.96
2019-06-08T23:57:30.156Z,56.04
